createdAt,value
2023-03-23T15:58:37.882Z,1.55
2023-03-23T16:01:09.632Z,1.33
2023-03-23T16:03:43.627Z,1.73
2023-03-23T16:06:25.338Z,1.50
2023-03-23T16:08:58.049Z,2.20
2023-03-23T16:11:31.477Z,2.22
2023-03-23T16:14:02.143Z,1.67
2023-03-23T16:16:36.106Z,2.65
2023-03-23T16:19:06.533Z,1.75
2023-03-23T16:21:35.918Z,2.50
2023-03-23T16:24:07.958Z,1.88
2023-03-23T16:26:37.537Z,1.90
2023-03-23T16:29:23.876Z,2.10
2023-03-23T16:31:53.590Z,2.40
2023-03-23T16:34:23.314Z,1.52
2023-03-23T16:36:52.735Z,1.83
2023-03-23T16:39:23.916Z,1.73
2023-03-23T16:44:22.508Z,1.98
2023-03-23T16:46:51.853Z,2.00
2023-03-23T16:49:22.062Z,2.15
2023-03-23T16:51:51.519Z,1.83
2023-03-23T16:54:22.629Z,1.63
2023-03-23T16:56:52.278Z,1.80
2023-03-23T16:59:22.069Z,0.93
2023-03-23T17:01:51.442Z,0.88
2023-03-23T17:04:21.230Z,1.27
2023-03-23T17:06:51.958Z,2.63
2023-03-23T17:11:52.463Z,1.45
2023-03-23T17:14:24.432Z,2.27
2023-03-23T17:16:53.725Z,2.42
2023-03-23T17:19:23.915Z,2.17
2023-03-23T17:21:53.347Z,2.38
2023-03-23T17:24:24.638Z,2.65
2023-03-23T17:29:24.042Z,2.53
2023-03-23T17:31:53.767Z,2.70
2023-03-23T17:34:23.441Z,2.60
2023-03-23T17:36:53.032Z,2.90
2023-03-23T17:39:24.405Z,2.87
2023-03-23T17:41:53.789Z,3.15
2023-03-23T17:44:23.978Z,3.42
2023-03-23T17:46:53.513Z,2.83
2023-03-23T17:49:24.083Z,2.47
2023-03-23T17:51:53.533Z,3.47
2023-03-23T17:54:25.873Z,3.30
2023-03-23T17:56:55.562Z,3.50
2023-03-23T17:59:25.656Z,2.80
2023-03-23T18:01:55.563Z,3.53
2023-03-23T18:04:27.434Z,4.50
2023-03-23T18:06:58.629Z,4.45
2023-03-23T18:09:29.853Z,3.65
2023-03-23T18:11:59.863Z,3.03
2023-03-23T18:14:29.682Z,3.03
2023-03-23T18:16:59.809Z,3.50
2023-03-23T18:19:30.386Z,2.95
2023-03-23T18:21:59.749Z,3.42
2023-03-23T18:24:31.217Z,3.30
2023-03-23T18:27:02.482Z,3.83
2023-03-23T18:29:32.507Z,4.22
2023-03-23T18:32:01.874Z,4.70
2023-03-23T18:34:32.511Z,4.78
2023-03-23T18:41:00.581Z,7.15
2023-03-23T18:43:30.064Z,6.15
2023-03-23T18:51:19.968Z,6.53
2023-03-23T18:58:23.268Z,6.88
2023-03-23T19:00:57.860Z,7.18
2023-03-23T19:03:27.709Z,7.10
2023-03-23T19:06:00.744Z,7.57
2023-03-23T19:08:30.585Z,7.65
2023-03-23T19:11:02.064Z,9.07
2023-03-23T19:13:37.080Z,8.02
2023-03-23T19:16:08.498Z,7.32
2023-03-23T19:18:38.095Z,7.60
2023-03-23T19:21:14.610Z,7.63
2023-03-23T19:23:44.789Z,7.10
2023-03-23T19:26:23.468Z,7.23
2023-03-23T19:29:24.389Z,6.82
2023-03-23T19:31:46.165Z,7.80
2023-03-23T19:34:17.056Z,6.32
2023-03-23T19:36:54.330Z,6.88
2023-03-23T19:39:25.505Z,6.55
2023-03-23T19:41:56.278Z,6.30
2023-03-23T19:44:28.674Z,6.00
2023-03-23T19:46:59.012Z,5.90
2023-03-23T19:49:28.873Z,4.25
2023-03-23T19:52:08.945Z,4.82
2023-03-23T19:54:40.916Z,4.03
2023-03-23T19:57:12.294Z,4.07
2023-03-23T19:59:43.312Z,3.47
2023-03-23T20:02:13.821Z,2.85
2023-03-23T20:04:45.433Z,2.10
2023-03-23T20:07:15.656Z,1.92
2023-03-23T20:09:45.091Z,1.77
2023-03-23T20:12:15.035Z,2.67
2023-03-23T20:14:45.793Z,1.83
2023-03-23T20:17:16.057Z,1.75
2023-03-23T20:19:45.272Z,1.60
2023-03-23T20:22:15.781Z,1.55
2023-03-23T20:24:47.407Z,1.85
2023-03-23T20:27:19.077Z,3.05
2023-03-23T20:29:49.772Z,1.70
2023-03-23T20:32:19.430Z,1.88
2023-03-23T20:34:49.923Z,1.50
2023-03-23T20:37:21.017Z,1.20
2023-03-23T20:39:50.243Z,1.70
2023-03-23T20:42:19.862Z,1.73
2023-03-23T20:44:50.530Z,1.35
2023-03-23T20:47:20.725Z,2.17
2023-03-23T20:49:53.012Z,1.58
2023-03-23T20:52:26.152Z,1.30
2023-03-23T20:54:56.376Z,1.45
2023-03-23T20:57:26.194Z,1.55
2023-03-23T20:59:57.174Z,1.60
2023-03-23T21:02:30.255Z,1.55
2023-03-23T21:05:04.486Z,1.70
2023-03-23T21:07:34.195Z,1.90
2023-03-23T21:10:03.526Z,2.15
2023-03-23T21:12:33.348Z,2.03
2023-03-23T21:15:04.066Z,1.95
2023-03-23T21:17:34.349Z,2.05
2023-03-23T21:20:08.001Z,2.10
2023-03-23T21:22:37.783Z,4.20
2023-03-23T21:25:10.345Z,2.45
2023-03-23T21:27:40.015Z,2.13
2023-03-23T21:30:12.126Z,2.35
2023-03-23T21:32:41.823Z,2.38
2023-03-23T21:35:11.159Z,1.80
2023-03-23T21:37:41.575Z,2.42
2023-03-23T21:40:17.137Z,2.90
2023-03-23T21:42:49.329Z,2.50
2023-03-23T21:45:21.306Z,2.35
2023-03-23T21:47:58.091Z,2.28
2023-03-23T21:50:27.447Z,2.42
2023-03-23T21:52:57.093Z,2.75
2023-03-23T21:55:30.154Z,2.80
2023-03-23T21:57:59.792Z,2.22
2023-03-23T22:00:30.632Z,2.78
2023-03-23T22:03:00.663Z,2.40
2023-03-23T22:05:30.834Z,2.60
2023-03-23T22:08:00.589Z,2.08
2023-03-23T22:10:30.226Z,2.08
2023-03-23T22:13:00.213Z,2.30
2023-03-23T22:15:31.205Z,2.03
2023-03-23T22:18:01.084Z,1.90
2023-03-23T22:20:31.286Z,2.35
2023-03-23T22:25:31.094Z,2.80
2023-03-23T22:28:00.830Z,1.48
2023-03-23T22:30:33.392Z,2.10
2023-03-23T22:33:03.587Z,2.10
2023-03-23T22:35:34.061Z,2.30
2023-03-23T22:38:04.587Z,1.90
2023-03-23T22:40:34.204Z,1.87
2023-03-23T22:43:04.694Z,2.58
2023-03-23T22:45:36.131Z,3.03
2023-03-23T22:48:08.260Z,2.58
2023-03-23T22:50:37.567Z,2.60
2023-03-23T22:53:07.583Z,2.40
2023-03-23T22:55:36.853Z,2.40
2023-03-23T22:58:07.024Z,1.95
2023-03-23T23:00:39.851Z,1.65
2023-03-23T23:03:09.502Z,2.00
2023-03-23T23:05:43.151Z,1.90
2023-03-23T23:08:15.271Z,1.83
2023-03-23T23:10:49.717Z,3.72
2023-03-23T23:13:20.298Z,1.75
2023-03-23T23:15:54.128Z,1.67
2023-03-23T23:18:25.330Z,2.33
2023-03-23T23:20:57.020Z,1.70
2023-03-23T23:23:27.875Z,2.33
2023-03-23T23:25:58.821Z,1.98
2023-03-23T23:28:29.019Z,1.85
2023-03-23T23:30:59.924Z,1.90
2023-03-23T23:33:30.232Z,2.03
2023-03-23T23:35:59.785Z,1.85
2023-03-23T23:38:30.515Z,2.13
2023-03-23T23:41:00.153Z,2.78
2023-03-23T23:43:30.111Z,2.60
2023-03-23T23:46:01.289Z,2.15
2023-03-23T23:48:31.191Z,2.38
2023-03-23T23:51:00.689Z,2.38
2023-03-23T23:53:32.107Z,2.28
2023-03-23T23:58:33.249Z,3.13
